RYR6CA LFBT-EIDW
Flight info
| Callsign | RYR6CA |
|---|---|
| Flight time | 1h 45m |
| Altitude | 38000 |
| Route | USAKU DCT AGN DCT SECHE DCT UVELI DCT CNA DCT MANAK DCT MUREL DCT NOZHU/N0446F370 DCT SHIRI/N0446F380 DCT UNFIT DCT PENWU DCT NICXI DCT LEMGU M17 VATRY VATRY4L |
| Aircraft | B738/M-SDE3FGILRWY/SB1 |
Departure
| Time | 2026-05-01 13:07 |
|---|---|
| Airport | Tarbes-Lourdes-Pyrénées Airport (LFBT) |
Arrival
| Time | 2026-05-01 14:52 |
|---|---|
| Airport | Dublin Airport (EIDW) |
| Time | Latitude | Longitude | Altitude | Speed | Heading |
|---|---|---|---|---|---|
| 2026-05-01 12:35 | 43.18479 | 0.00313 | 1195 ft | 0 kts | 37° |
| 2026-05-01 12:56 | 43.18466 | 0.00299 | 1195 ft | 4 kts | 37° |
| 2026-05-01 12:56 | 43.18444 | 0.00278 | 1195 ft | 4 kts | 27° |
| 2026-05-01 12:56 | 43.18421 | 0.00269 | 1196 ft | 4 kts | 339° |
| 2026-05-01 12:56 | 43.18409 | 0.00285 | 1196 ft | 1 kts | 281° |
| 2026-05-01 12:59 | 43.18410 | 0.00276 | 1196 ft | 3 kts | 281° |
| 2026-05-01 13:00 | 43.18427 | 0.00139 | 1197 ft | 11 kts | 255° |
| 2026-05-01 13:00 | 43.18362 | 0.00074 | 1199 ft | 13 kts | 209° |
| 2026-05-01 13:01 | 43.18191 | -0.00057 | 1206 ft | 16 kts | 209° |
| 2026-05-01 13:01 | 43.18091 | -0.00132 | 1209 ft | 17 kts | 209° |
| 2026-05-01 13:01 | 43.17867 | -0.00303 | 1216 ft | 20 kts | 209° |
| 2026-05-01 13:02 | 43.17745 | -0.00396 | 1219 ft | 20 kts | 209° |
| 2026-05-01 13:07 | 43.31459 | 0.07079 | 6382 ft | 276 kts | 26° |
| 2026-05-01 13:07 | 43.33211 | 0.08191 | 7180 ft | 279 kts | 26° |
| 2026-05-01 13:07 | 43.34987 | 0.09316 | 7963 ft | 283 kts | 25° |
| 2026-05-01 13:08 | 43.36783 | 0.10452 | 8719 ft | 285 kts | 25° |
| 2026-05-01 13:08 | 43.38599 | 0.11598 | 9461 ft | 289 kts | 25° |
| 2026-05-01 13:08 | 43.40440 | 0.12760 | 10212 ft | 292 kts | 25° |
| 2026-05-01 13:08 | 43.42322 | 0.13950 | 10670 ft | 308 kts | 25° |
| 2026-05-01 13:09 | 43.44350 | 0.15233 | 10858 ft | 332 kts | 24° |
| 2026-05-01 13:09 | 43.46504 | 0.16596 | 11081 ft | 351 kts | 24° |
| 2026-05-01 13:09 | 43.48755 | 0.18022 | 11638 ft | 359 kts | 24° |
| 2026-05-01 13:09 | 43.51034 | 0.19466 | 12346 ft | 362 kts | 24° |
| 2026-05-01 13:10 | 43.53260 | 0.21125 | 13030 ft | 367 kts | 38° |
| 2026-05-01 13:10 | 43.54951 | 0.23745 | 13752 ft | 370 kts | 60° |
| 2026-05-01 13:10 | 43.56056 | 0.26952 | 14496 ft | 372 kts | 67° |
| 2026-05-01 13:10 | 43.57079 | 0.30256 | 15205 ft | 376 kts | 67° |
| 2026-05-01 13:11 | 43.58102 | 0.33592 | 15806 ft | 380 kts | 67° |
| 2026-05-01 13:11 | 43.59148 | 0.36953 | 16413 ft | 383 kts | 66° |
| 2026-05-01 13:11 | 43.60219 | 0.40334 | 17009 ft | 387 kts | 67° |
| 2026-05-01 13:11 | 43.61299 | 0.43752 | 17602 ft | 390 kts | 66° |
| 2026-05-01 13:12 | 43.62421 | 0.47170 | 18176 ft | 393 kts | 60° |
| 2026-05-01 13:12 | 43.64149 | 0.50093 | 18683 ft | 395 kts | 43° |
| 2026-05-01 13:12 | 43.66083 | 0.52819 | 19197 ft | 398 kts | 47° |
| 2026-05-01 13:12 | 43.67969 | 0.55640 | 19640 ft | 403 kts | 47° |
| 2026-05-01 13:13 | 43.69881 | 0.58513 | 20179 ft | 407 kts | 47° |
| 2026-05-01 13:13 | 43.71800 | 0.61410 | 20771 ft | 410 kts | 47° |
| 2026-05-01 13:13 | 43.73726 | 0.64327 | 21369 ft | 412 kts | 47° |
| 2026-05-01 13:13 | 43.75666 | 0.67272 | 21905 ft | 416 kts | 47° |
| 2026-05-01 13:14 | 43.77618 | 0.70241 | 22414 ft | 420 kts | 47° |
| 2026-05-01 13:14 | 43.79588 | 0.73238 | 22925 ft | 423 kts | 47° |
| 2026-05-01 13:14 | 43.81575 | 0.76264 | 23412 ft | 426 kts | 47° |
| 2026-05-01 13:14 | 43.83575 | 0.79314 | 23890 ft | 429 kts | 47° |
| 2026-05-01 13:15 | 43.85734 | 0.82170 | 24313 ft | 433 kts | 34° |
| 2026-05-01 13:15 | 43.88455 | 0.83935 | 24779 ft | 434 kts | 14° |
| 2026-05-01 13:15 | 43.91449 | 0.84435 | 25263 ft | 434 kts | 357° |
| 2026-05-01 13:15 | 43.94429 | 0.83777 | 25682 ft | 435 kts | 340° |
| 2026-05-01 13:16 | 43.97218 | 0.82134 | 26114 ft | 436 kts | 334° |
| 2026-05-01 13:16 | 43.99968 | 0.80322 | 26496 ft | 440 kts | 333° |
| 2026-05-01 13:16 | 44.02729 | 0.78467 | 26873 ft | 442 kts | 333° |
| 2026-05-01 13:17 | 44.11090 | 0.72920 | 28010 ft | 449 kts | 333° |
| 2026-05-01 13:17 | 44.13923 | 0.71073 | 28366 ft | 451 kts | 334° |
| 2026-05-01 13:18 | 44.19640 | 0.67358 | 29048 ft | 455 kts | 333° |
| 2026-05-01 13:18 | 44.22517 | 0.65488 | 29370 ft | 457 kts | 333° |
| 2026-05-01 13:18 | 44.25406 | 0.63606 | 29690 ft | 459 kts | 333° |
| 2026-05-01 13:18 | 44.28305 | 0.61715 | 29998 ft | 461 kts | 333° |
| 2026-05-01 13:19 | 44.31213 | 0.59815 | 30295 ft | 463 kts | 333° |
| 2026-05-01 13:19 | 44.34136 | 0.57903 | 30609 ft | 464 kts | 333° |
| 2026-05-01 13:19 | 44.39969 | 0.54083 | 31399 ft | 462 kts | 333° |
| 2026-05-01 13:20 | 44.42867 | 0.52181 | 31769 ft | 461 kts | 333° |
| 2026-05-01 13:20 | 44.45778 | 0.50266 | 32099 ft | 461 kts | 333° |
| 2026-05-01 13:20 | 44.48670 | 0.48352 | 32416 ft | 461 kts | 333° |
| 2026-05-01 13:21 | 44.54465 | 0.44502 | 33088 ft | 460 kts | 333° |
| 2026-05-01 13:21 | 44.57352 | 0.42581 | 33416 ft | 459 kts | 333° |
| 2026-05-01 13:21 | 44.60239 | 0.40659 | 33720 ft | 459 kts | 333° |
| 2026-05-01 13:21 | 44.63119 | 0.38740 | 34012 ft | 459 kts | 333° |
| 2026-05-01 13:22 | 44.66003 | 0.36817 | 34320 ft | 458 kts | 333° |
| 2026-05-01 13:22 | 44.68882 | 0.34895 | 34641 ft | 457 kts | 333° |
| 2026-05-01 13:22 | 44.71750 | 0.32978 | 34956 ft | 456 kts | 333° |
| 2026-05-01 13:22 | 44.74616 | 0.31060 | 35232 ft | 456 kts | 333° |
| 2026-05-01 13:23 | 44.77481 | 0.29139 | 35492 ft | 456 kts | 333° |
| 2026-05-01 13:23 | 44.80340 | 0.27222 | 35792 ft | 455 kts | 333° |
| 2026-05-01 13:23 | 44.83197 | 0.25303 | 36068 ft | 455 kts | 333° |
| 2026-05-01 13:23 | 44.86048 | 0.23387 | 36332 ft | 454 kts | 333° |
| 2026-05-01 13:24 | 44.88895 | 0.21471 | 36544 ft | 454 kts | 333° |
| 2026-05-01 13:24 | 44.91751 | 0.19547 | 36774 ft | 454 kts | 333° |
| 2026-05-01 13:24 | 44.94592 | 0.17631 | 37113 ft | 451 kts | 333° |
| 2026-05-01 13:25 | 45.00201 | 0.13842 | 37836 ft | 443 kts | 333° |
| 2026-05-01 13:25 | 45.02981 | 0.11961 | 38065 ft | 442 kts | 333° |
| 2026-05-01 13:25 | 45.05759 | 0.10080 | 38183 ft | 445 kts | 333° |
| 2026-05-01 13:26 | 45.11373 | 0.06274 | 38201 ft | 447 kts | 333° |
| 2026-05-01 13:26 | 45.16961 | 0.02479 | 38201 ft | 443 kts | 333° |
| 2026-05-01 13:27 | 45.22490 | -0.01283 | 38198 ft | 440 kts | 333° |
| 2026-05-01 13:27 | 45.30755 | -0.06926 | 38209 ft | 442 kts | 333° |
| 2026-05-01 13:28 | 45.39160 | -0.12688 | 38197 ft | 450 kts | 333° |
| 2026-05-01 13:29 | 45.50498 | -0.20479 | 38192 ft | 453 kts | 333° |
| 2026-05-01 13:31 | 45.67297 | -0.32495 | 38171 ft | 448 kts | 322° |
| 2026-05-01 13:32 | 45.79388 | -0.46276 | 38178 ft | 442 kts | 320° |
| 2026-05-01 13:33 | 45.91392 | -0.59920 | 38185 ft | 440 kts | 320° |
| 2026-05-01 13:34 | 46.00983 | -0.70856 | 38187 ft | 441 kts | 320° |
| 2026-05-01 13:35 | 46.08198 | -0.79118 | 38188 ft | 443 kts | 320° |
| 2026-05-01 13:36 | 46.15431 | -0.87431 | 38183 ft | 444 kts | 320° |
| 2026-05-01 13:36 | 46.22801 | -0.95574 | 38175 ft | 446 kts | 328° |
| 2026-05-01 13:37 | 46.27321 | -0.99169 | 38181 ft | 447 kts | 331° |
| 2026-05-01 13:37 | 46.33758 | -1.04075 | 38187 ft | 448 kts | 331° |
| 2026-05-01 13:38 | 46.41988 | -1.10478 | 38193 ft | 447 kts | 330° |
| 2026-05-01 13:39 | 46.47454 | -1.14798 | 38196 ft | 447 kts | 330° |
| 2026-05-01 13:39 | 46.52915 | -1.19134 | 38204 ft | 447 kts | 330° |
| 2026-05-01 13:40 | 46.58369 | -1.23473 | 38203 ft | 446 kts | 330° |
| 2026-05-01 13:40 | 46.63775 | -1.27783 | 38212 ft | 446 kts | 330° |
| 2026-05-01 13:41 | 46.69215 | -1.32130 | 38211 ft | 446 kts | 330° |
| 2026-05-01 13:41 | 46.74643 | -1.36477 | 38210 ft | 445 kts | 330° |
| 2026-05-01 13:42 | 46.80068 | -1.40834 | 38212 ft | 445 kts | 330° |
| 2026-05-01 13:42 | 46.85489 | -1.45194 | 38207 ft | 444 kts | 330° |
| 2026-05-01 13:43 | 46.90905 | -1.49562 | 38210 ft | 445 kts | 330° |
| 2026-05-01 13:43 | 46.96320 | -1.53938 | 38203 ft | 444 kts | 330° |
| 2026-05-01 13:44 | 47.01734 | -1.58324 | 38194 ft | 445 kts | 330° |
| 2026-05-01 13:44 | 47.07149 | -1.62719 | 38190 ft | 445 kts | 330° |
| 2026-05-01 13:45 | 47.12567 | -1.67128 | 38183 ft | 445 kts | 330° |
| 2026-05-01 13:45 | 47.17980 | -1.71542 | 38185 ft | 445 kts | 330° |
| 2026-05-01 13:46 | 47.22475 | -1.75217 | 38183 ft | 445 kts | 330° |
| 2026-05-01 13:46 | 47.27876 | -1.79643 | 38188 ft | 444 kts | 330° |
| 2026-05-01 13:47 | 47.33277 | -1.84081 | 38193 ft | 444 kts | 330° |
| 2026-05-01 13:47 | 47.38674 | -1.88521 | 38201 ft | 444 kts | 330° |
| 2026-05-01 13:48 | 47.44058 | -1.92961 | 38205 ft | 444 kts | 330° |
| 2026-05-01 13:48 | 47.49443 | -1.97419 | 38203 ft | 443 kts | 330° |
| 2026-05-01 13:49 | 47.54824 | -2.01881 | 38203 ft | 443 kts | 330° |
| 2026-05-01 13:49 | 47.60206 | -2.06352 | 38215 ft | 444 kts | 330° |
| 2026-05-01 13:50 | 47.65592 | -2.10840 | 38208 ft | 444 kts | 330° |
| 2026-05-01 13:50 | 47.70973 | -2.15334 | 38207 ft | 444 kts | 330° |
| 2026-05-01 13:51 | 47.76351 | -2.19836 | 38212 ft | 443 kts | 330° |
| 2026-05-01 13:51 | 47.81727 | -2.24345 | 38216 ft | 444 kts | 329° |
| 2026-05-01 13:52 | 47.87106 | -2.28867 | 38216 ft | 444 kts | 329° |
| 2026-05-01 13:52 | 47.92481 | -2.33399 | 38211 ft | 444 kts | 329° |
| 2026-05-01 13:53 | 47.97868 | -2.37951 | 38210 ft | 445 kts | 329° |
| 2026-05-01 13:53 | 48.05923 | -2.44780 | 38211 ft | 445 kts | 329° |
| 2026-05-01 13:54 | 48.11299 | -2.49350 | 38212 ft | 445 kts | 329° |
| 2026-05-01 13:54 | 48.16678 | -2.53936 | 38216 ft | 445 kts | 329° |
| 2026-05-01 13:55 | 48.22053 | -2.58528 | 38215 ft | 445 kts | 329° |
| 2026-05-01 13:55 | 48.27433 | -2.63135 | 38211 ft | 445 kts | 329° |
| 2026-05-01 13:56 | 48.32813 | -2.67755 | 38210 ft | 445 kts | 329° |
| 2026-05-01 13:56 | 48.38197 | -2.72387 | 38212 ft | 446 kts | 329° |
| 2026-05-01 13:57 | 48.43585 | -2.77037 | 38215 ft | 447 kts | 329° |
| 2026-05-01 13:57 | 48.48978 | -2.81701 | 38207 ft | 447 kts | 329° |
| 2026-05-01 13:58 | 48.54338 | -2.86348 | 38216 ft | 447 kts | 329° |
| 2026-05-01 13:58 | 48.59733 | -2.91036 | 38208 ft | 447 kts | 329° |
| 2026-05-01 13:59 | 48.65124 | -2.95735 | 38214 ft | 447 kts | 329° |
| 2026-05-01 13:59 | 48.70514 | -3.00443 | 38211 ft | 447 kts | 329° |
| 2026-05-01 14:00 | 48.75905 | -3.05165 | 38216 ft | 447 kts | 329° |
| 2026-05-01 14:00 | 48.81292 | -3.09896 | 38214 ft | 448 kts | 329° |
| 2026-05-01 14:01 | 48.86682 | -3.14639 | 38213 ft | 448 kts | 329° |
| 2026-05-01 14:01 | 48.92077 | -3.19400 | 38211 ft | 448 kts | 329° |
| 2026-05-01 14:02 | 48.97469 | -3.24168 | 38214 ft | 449 kts | 328° |
| 2026-05-01 14:02 | 49.02856 | -3.28948 | 38209 ft | 449 kts | 328° |
| 2026-05-01 14:03 | 49.08260 | -3.33752 | 38211 ft | 449 kts | 328° |
| 2026-05-01 14:03 | 49.13659 | -3.38564 | 38210 ft | 450 kts | 328° |
| 2026-05-01 14:04 | 49.19060 | -3.43392 | 38213 ft | 450 kts | 328° |
| 2026-05-01 14:04 | 49.23552 | -3.47417 | 38211 ft | 450 kts | 328° |
| 2026-05-01 14:05 | 49.29863 | -3.53081 | 38212 ft | 450 kts | 328° |
| 2026-05-01 14:05 | 49.35493 | -3.57277 | 38227 ft | 451 kts | 339° |
| 2026-05-01 14:06 | 49.41390 | -3.60509 | 38214 ft | 452 kts | 340° |
| 2026-05-01 14:06 | 49.47307 | -3.63767 | 38207 ft | 452 kts | 339° |
| 2026-05-01 14:07 | 49.53205 | -3.67122 | 38199 ft | 452 kts | 339° |
| 2026-05-01 14:08 | 49.62024 | -3.72193 | 38203 ft | 452 kts | 338° |
| 2026-05-01 14:08 | 49.67958 | -3.75388 | 38193 ft | 453 kts | 347° |
| 2026-05-01 14:09 | 49.74217 | -3.76152 | 38201 ft | 453 kts | 4° |
| 2026-05-01 14:09 | 49.80505 | -3.75343 | 38197 ft | 454 kts | 5° |
| 2026-05-01 14:10 | 49.86747 | -3.74495 | 38193 ft | 453 kts | 4° |
| 2026-05-01 14:10 | 49.93039 | -3.73710 | 38196 ft | 454 kts | 4° |
| 2026-05-01 14:11 | 49.99336 | -3.72957 | 38194 ft | 454 kts | 4° |
| 2026-05-01 14:11 | 50.08796 | -3.71827 | 38193 ft | 455 kts | 4° |
| 2026-05-01 14:12 | 50.15108 | -3.71069 | 38198 ft | 455 kts | 4° |
| 2026-05-01 14:12 | 50.21425 | -3.70307 | 38189 ft | 455 kts | 4° |
| 2026-05-01 14:13 | 50.26700 | -3.69671 | 38188 ft | 455 kts | 4° |
| 2026-05-01 14:13 | 50.34043 | -3.68783 | 38183 ft | 455 kts | 4° |
| 2026-05-01 14:14 | 50.40363 | -3.68447 | 38176 ft | 455 kts | 353° |
| 2026-05-01 14:14 | 50.46455 | -3.70852 | 38192 ft | 452 kts | 338° |
| 2026-05-01 14:15 | 50.52293 | -3.74550 | 38186 ft | 452 kts | 337° |
| 2026-05-01 14:15 | 50.58122 | -3.78274 | 38184 ft | 453 kts | 337° |
| 2026-05-01 14:16 | 50.63969 | -3.81952 | 38183 ft | 453 kts | 337° |
| 2026-05-01 14:16 | 50.69823 | -3.85607 | 38182 ft | 452 kts | 338° |
| 2026-05-01 14:17 | 50.75674 | -3.89265 | 38187 ft | 452 kts | 337° |
| 2026-05-01 14:17 | 50.81525 | -3.92931 | 38184 ft | 453 kts | 337° |
| 2026-05-01 14:18 | 50.87379 | -3.96615 | 38185 ft | 453 kts | 337° |
| 2026-05-01 14:18 | 50.92248 | -3.99686 | 38185 ft | 453 kts | 337° |
| 2026-05-01 14:19 | 50.99091 | -4.04015 | 38179 ft | 453 kts | 337° |
| 2026-05-01 14:19 | 51.04906 | -4.07706 | 38185 ft | 453 kts | 337° |
| 2026-05-01 14:20 | 51.13678 | -4.13285 | 38184 ft | 453 kts | 337° |
| 2026-05-01 14:21 | 51.19525 | -4.17018 | 38185 ft | 453 kts | 337° |
| 2026-05-01 14:21 | 51.25378 | -4.20768 | 38185 ft | 453 kts | 337° |
| 2026-05-01 14:22 | 51.31261 | -4.24547 | 37619 ft | 458 kts | 337° |
| 2026-05-01 14:22 | 51.34213 | -4.26447 | 37057 ft | 457 kts | 337° |
| 2026-05-01 14:22 | 51.37157 | -4.28343 | 36527 ft | 455 kts | 337° |
| 2026-05-01 14:22 | 51.40094 | -4.30239 | 35954 ft | 455 kts | 337° |
| 2026-05-01 14:23 | 51.43027 | -4.32162 | 35323 ft | 456 kts | 335° |
| 2026-05-01 14:23 | 51.45918 | -4.34258 | 34728 ft | 456 kts | 334° |
| 2026-05-01 14:23 | 51.48781 | -4.36455 | 34083 ft | 457 kts | 333° |
| 2026-05-01 14:23 | 51.51627 | -4.38677 | 33664 ft | 452 kts | 333° |
| 2026-05-01 14:24 | 51.54451 | -4.40877 | 33203 ft | 450 kts | 333° |
| 2026-05-01 14:24 | 51.57264 | -4.43052 | 32757 ft | 447 kts | 333° |
| 2026-05-01 14:24 | 51.60057 | -4.45198 | 32317 ft | 443 kts | 333° |
| 2026-05-01 14:24 | 51.62829 | -4.47322 | 31886 ft | 440 kts | 333° |
| 2026-05-01 14:25 | 51.65582 | -4.49431 | 31467 ft | 437 kts | 333° |
| 2026-05-01 14:25 | 51.68321 | -4.51531 | 31033 ft | 434 kts | 334° |
| 2026-05-01 14:25 | 51.71034 | -4.53615 | 30607 ft | 431 kts | 333° |
| 2026-05-01 14:25 | 51.73731 | -4.55690 | 30187 ft | 428 kts | 333° |
| 2026-05-01 14:26 | 51.76328 | -4.57995 | 29752 ft | 424 kts | 324° |
| 2026-05-01 14:26 | 51.80576 | -4.64339 | 29006 ft | 412 kts | 308° |
| 2026-05-01 14:26 | 51.82381 | -4.67906 | 28584 ft | 409 kts | 307° |
| 2026-05-01 14:27 | 51.84156 | -4.71476 | 28140 ft | 406 kts | 307° |
| 2026-05-01 14:27 | 51.85925 | -4.75026 | 27709 ft | 404 kts | 307° |
| 2026-05-01 14:27 | 51.87691 | -4.78550 | 27284 ft | 402 kts | 307° |
| 2026-05-01 14:28 | 51.91212 | -4.85516 | 26416 ft | 398 kts | 307° |
| 2026-05-01 14:28 | 51.92962 | -4.88969 | 25999 ft | 396 kts | 307° |
| 2026-05-01 14:28 | 51.94703 | -4.92410 | 25569 ft | 394 kts | 307° |
| 2026-05-01 14:28 | 51.96435 | -4.95837 | 25148 ft | 392 kts | 307° |
| 2026-05-01 14:29 | 51.98132 | -4.99200 | 24735 ft | 390 kts | 307° |
| 2026-05-01 14:29 | 51.99854 | -5.02580 | 24311 ft | 388 kts | 310° |
| 2026-05-01 14:30 | 52.00479 | -5.03654 | 24176 ft | 388 kts | 314° |
| 2026-05-01 14:30 | 52.01164 | -5.04680 | 24025 ft | 388 kts | 318° |
| 2026-05-01 14:31 | 52.05726 | -5.09292 | 23225 ft | 386 kts | 332° |
| 2026-05-01 14:31 | 52.08130 | -5.11210 | 22818 ft | 384 kts | 333° |
| 2026-05-01 14:31 | 52.10530 | -5.13104 | 22413 ft | 383 kts | 333° |
| 2026-05-01 14:31 | 52.12916 | -5.15002 | 22012 ft | 380 kts | 333° |
| 2026-05-01 14:32 | 52.15282 | -5.16903 | 21622 ft | 378 kts | 332° |
| 2026-05-01 14:32 | 52.16839 | -5.18163 | 21353 ft | 377 kts | 332° |
| 2026-05-01 14:32 | 52.19178 | -5.20068 | 20955 ft | 375 kts | 332° |
| 2026-05-01 14:32 | 52.21534 | -5.21995 | 20567 ft | 372 kts | 332° |
| 2026-05-01 14:33 | 52.23810 | -5.23861 | 20188 ft | 370 kts | 332° |
| 2026-05-01 14:33 | 52.26101 | -5.25741 | 19802 ft | 368 kts | 332° |
| 2026-05-01 14:33 | 52.28383 | -5.27613 | 19412 ft | 366 kts | 332° |
| 2026-05-01 14:33 | 52.30651 | -5.29482 | 19025 ft | 365 kts | 332° |
| 2026-05-01 14:34 | 52.32912 | -5.31344 | 18644 ft | 363 kts | 332° |
| 2026-05-01 14:34 | 52.35155 | -5.33198 | 18265 ft | 360 kts | 332° |
| 2026-05-01 14:34 | 52.37374 | -5.35033 | 17961 ft | 356 kts | 332° |
| 2026-05-01 14:34 | 52.39582 | -5.36860 | 17585 ft | 354 kts | 332° |
| 2026-05-01 14:35 | 52.41778 | -5.38672 | 17265 ft | 354 kts | 332° |
| 2026-05-01 14:35 | 52.43952 | -5.40498 | 17029 ft | 353 kts | 331° |
| 2026-05-01 14:35 | 52.46155 | -5.42321 | 16752 ft | 355 kts | 334° |
| 2026-05-01 14:35 | 52.48481 | -5.43849 | 16240 ft | 362 kts | 340° |
| 2026-05-01 14:36 | 52.50868 | -5.45162 | 15817 ft | 363 kts | 341° |
| 2026-05-01 14:36 | 52.53274 | -5.46386 | 15432 ft | 362 kts | 342° |
| 2026-05-01 14:36 | 52.55667 | -5.47608 | 15052 ft | 357 kts | 342° |
| 2026-05-01 14:36 | 52.58029 | -5.48832 | 14652 ft | 354 kts | 341° |
| 2026-05-01 14:37 | 52.60364 | -5.50069 | 14267 ft | 351 kts | 341° |
| 2026-05-01 14:37 | 52.62674 | -5.51308 | 13893 ft | 348 kts | 341° |
| 2026-05-01 14:37 | 52.64966 | -5.52551 | 13519 ft | 346 kts | 341° |
| 2026-05-01 14:37 | 52.67244 | -5.53796 | 13154 ft | 343 kts | 341° |
| 2026-05-01 14:38 | 52.69503 | -5.55034 | 12772 ft | 341 kts | 341° |
| 2026-05-01 14:38 | 52.71748 | -5.56265 | 12408 ft | 339 kts | 341° |
| 2026-05-01 14:38 | 52.73946 | -5.57473 | 12052 ft | 336 kts | 341° |
| 2026-05-01 14:38 | 52.76159 | -5.58689 | 11681 ft | 334 kts | 341° |
| 2026-05-01 14:39 | 52.78357 | -5.59900 | 11317 ft | 332 kts | 341° |
| 2026-05-01 14:39 | 52.80539 | -5.61104 | 10950 ft | 330 kts | 341° |
| 2026-05-01 14:39 | 52.82712 | -5.62304 | 10640 ft | 327 kts | 341° |
| 2026-05-01 14:39 | 52.84838 | -5.63478 | 10518 ft | 318 kts | 341° |
| 2026-05-01 14:40 | 52.86904 | -5.64620 | 10378 ft | 309 kts | 341° |
| 2026-05-01 14:40 | 52.88910 | -5.65733 | 10244 ft | 300 kts | 340° |
| 2026-05-01 14:40 | 52.90867 | -5.66817 | 10115 ft | 293 kts | 341° |
| 2026-05-01 14:40 | 52.92799 | -5.67886 | 9840 ft | 292 kts | 340° |
| 2026-05-01 14:41 | 52.94716 | -5.68948 | 9583 ft | 289 kts | 341° |
| 2026-05-01 14:41 | 52.96613 | -5.70001 | 9307 ft | 287 kts | 340° |
| 2026-05-01 14:41 | 52.98503 | -5.71053 | 9019 ft | 286 kts | 340° |
| 2026-05-01 14:41 | 53.00386 | -5.72103 | 8753 ft | 284 kts | 340° |
| 2026-05-01 14:42 | 53.02252 | -5.73145 | 8482 ft | 283 kts | 340° |
| 2026-05-01 14:42 | 53.04115 | -5.74183 | 8206 ft | 282 kts | 340° |
| 2026-05-01 14:42 | 53.05970 | -5.75218 | 7936 ft | 280 kts | 340° |
| 2026-05-01 14:42 | 53.07814 | -5.76254 | 7661 ft | 279 kts | 340° |
| 2026-05-01 14:43 | 53.09649 | -5.77286 | 7399 ft | 278 kts | 341° |
| 2026-05-01 14:43 | 53.11480 | -5.78309 | 7125 ft | 277 kts | 341° |
| 2026-05-01 14:43 | 53.13305 | -5.79325 | 6840 ft | 276 kts | 340° |
| 2026-05-01 14:43 | 53.15116 | -5.80340 | 6576 ft | 274 kts | 340° |
| 2026-05-01 14:44 | 53.16916 | -5.81356 | 6309 ft | 272 kts | 340° |
| 2026-05-01 14:44 | 53.20488 | -5.83360 | 5777 ft | 270 kts | 340° |
| 2026-05-01 14:44 | 53.22265 | -5.84356 | 5453 ft | 270 kts | 341° |
| 2026-05-01 14:45 | 53.24048 | -5.85358 | 5168 ft | 270 kts | 341° |
| 2026-05-01 14:45 | 53.27586 | -5.87354 | 4682 ft | 265 kts | 340° |
| 2026-05-01 14:45 | 53.29299 | -5.88323 | 4553 ft | 254 kts | 340° |
| 2026-05-01 14:46 | 53.30927 | -5.89241 | 4430 ft | 241 kts | 340° |
| 2026-05-01 14:46 | 53.33998 | -5.90981 | 4224 ft | 226 kts | 340° |
| 2026-05-01 14:46 | 53.35462 | -5.91807 | 4130 ft | 218 kts | 340° |
| 2026-05-01 14:47 | 53.36874 | -5.92605 | 3961 ft | 211 kts | 340° |
| 2026-05-01 14:47 | 53.38247 | -5.93384 | 3741 ft | 206 kts | 340° |
| 2026-05-01 14:47 | 53.39561 | -5.94227 | 3616 ft | 197 kts | 326° |
| 2026-05-01 14:48 | 53.40538 | -5.98219 | 3336 ft | 197 kts | 275° |
| 2026-05-01 14:48 | 53.40711 | -6.00455 | 3078 ft | 189 kts | 274° |
| 2026-05-01 14:48 | 53.40955 | -6.04686 | 2572 ft | 175 kts | 273° |
| 2026-05-01 14:49 | 53.41162 | -6.08652 | 2129 ft | 168 kts | 274° |
| 2026-05-01 14:49 | 53.41359 | -6.12428 | 1713 ft | 157 kts | 274° |
| 2026-05-01 14:50 | 53.41516 | -6.15399 | 1381 ft | 151 kts | 274° |
| 2026-05-01 14:50 | 53.41726 | -6.19380 | 912 ft | 145 kts | 274° |
| 2026-05-01 14:51 | 53.41816 | -6.21081 | 706 ft | 148 kts | 274° |
| 2026-05-01 14:51 | 53.41994 | -6.24494 | 316 ft | 148 kts | 274° |
| 2026-05-01 14:52 | 53.42160 | -6.27516 | 208 ft | 85 kts | 275° |
| 2026-05-01 14:52 | 53.42215 | -6.28144 | 211 ft | 29 kts | 295° |
| 2026-05-01 14:52 | 53.42371 | -6.28230 | 210 ft | 16 kts | 88° |
| 2026-05-01 14:53 | 53.42362 | -6.28043 | 210 ft | 17 kts | 95° |
| 2026-05-01 14:53 | 53.42350 | -6.27819 | 215 ft | 22 kts | 95° |
| 2026-05-01 14:53 | 53.42334 | -6.27524 | 210 ft | 28 kts | 95° |
| 2026-05-01 14:53 | 53.42316 | -6.27211 | 210 ft | 26 kts | 95° |
| 2026-05-01 14:54 | 53.42301 | -6.26916 | 210 ft | 24 kts | 95° |
| 2026-05-01 14:54 | 53.42286 | -6.26642 | 210 ft | 23 kts | 95° |
| 2026-05-01 14:54 | 53.42270 | -6.26380 | 210 ft | 22 kts | 95° |
| 2026-05-01 14:54 | 53.42257 | -6.26122 | 210 ft | 23 kts | 94° |
| 2026-05-01 14:55 | 53.42321 | -6.25868 | 215 ft | 26 kts | 46° |
| 2026-05-01 14:55 | 53.42456 | -6.25637 | 210 ft | 28 kts | 45° |
| 2026-05-01 14:55 | 53.42587 | -6.25414 | 209 ft | 26 kts | 45° |
| 2026-05-01 14:55 | 53.42702 | -6.25218 | 213 ft | 21 kts | 46° |
| 2026-05-01 14:56 | 53.42805 | -6.25054 | 214 ft | 20 kts | 27° |
| 2026-05-01 14:56 | 53.42889 | -6.24921 | 211 ft | 14 kts | 47° |
| 2026-05-01 14:56 | 53.42939 | -6.24809 | 218 ft | 9 kts | 86° |
| 2026-05-01 14:56 | 53.42976 | -6.24751 | 210 ft | 5 kts | 5° |
| 2026-05-01 14:57 | 53.42997 | -6.24748 | 210 ft | 1 kts | 5° |